»·PEaware :: N704YA CAD4-KGEG

N704YA :: CAD4-KGEG

FLIGHT INFORMATION

Flight Status: Arrived
Operator: Privately registered:
United States
More flights under this callsign
Pilot: Wayne R. (17783)
Aircraft: CESSNA 150 COMMUTER AEROBAT
(C150)
More flights by this aircraft type
Origin: CAD4 Trail
Canada
Destination: KGEG Spokane Intl
United States
More flights between these airports :: More routes between these airports
Route:
File this flight plan on PilotEdge
Remarks:
Altitude:
(Current/Filed)
7,500ft
Speed:
(Current/Filed)
95kts
Departed: 07-Jul-20 04:52 PM
Arrived: 07-Jul-20 05:51 PM
Distance/Time
Traveled:
87nm/0:58
Distance/Time
To Go:
Arrived

Flight Plot

Page will automatically refresh every two minutes.


Map Options




Map Legend


Flown Route
Filed Route
Departure Airport
Arrival Airport
Navaid (VOR, NDB)
Fix

Horizontal Profiles

Position Reports

Time Latitude Longitude Heading Altitude Ground
Speed
07-Jul-20 16:48 49.056042 -117.608138 87 1429ft 0kts
07-Jul-20 16:49 49.056479 -117.608575 255 1429ft 0kts
07-Jul-20 16:50 49.060705 -117.609596 217 1429ft 6kts
07-Jul-20 16:51 49.046885 -117.608559 169 1634ft 65kts
07-Jul-20 16:52 49.026341 -117.609021 177 2353ft 78kts
07-Jul-20 16:53 49.004699 -117.601965 161 3069ft 84kts
07-Jul-20 16:54 48.981289 -117.597432 174 3642ft 86kts
07-Jul-20 16:55 48.956429 -117.594973 174 4022ft 91kts
07-Jul-20 16:56 48.930276 -117.592692 176 4200ft 99kts
07-Jul-20 16:57 48.902300 -117.591213 176 4177ft 99kts
07-Jul-20 16:58 48.874617 -117.592503 201 4128ft 104kts
07-Jul-20 16:59 48.850491 -117.614263 214 4145ft 100kts
07-Jul-20 17:00 48.829203 -117.641082 218 4141ft 100kts
07-Jul-20 17:01 48.805095 -117.664307 207 4110ft 100kts
07-Jul-20 17:02 48.778557 -117.675416 184 4095ft 99kts
07-Jul-20 17:03 48.750909 -117.679741 184 4082ft 100kts
07-Jul-20 17:04 48.725718 -117.682628 206 4615ft 89kts
07-Jul-20 17:05 48.705666 -117.702074 210 5143ft 89kts
07-Jul-20 17:06 48.684269 -117.722654 210 5595ft 93kts
07-Jul-20 17:07 48.661505 -117.744638 210 5883ft 99kts
07-Jul-20 17:08 48.637927 -117.766918 210 5998ft 104kts
07-Jul-20 17:09 48.613188 -117.788142 204 5744ft 99kts
07-Jul-20 17:10 48.587769 -117.805671 195 5512ft 97kts
07-Jul-20 17:11 48.561196 -117.808679 170 5277ft 96kts
07-Jul-20 17:12 48.534631 -117.811362 183 5159ft 94kts
07-Jul-20 17:13 48.508661 -117.815146 185 5062ft 92kts
07-Jul-20 17:14 48.483208 -117.820043 194 4961ft 91kts
07-Jul-20 17:15 48.458427 -117.828893 194 4936ft 91kts
07-Jul-20 17:16 48.433588 -117.837634 194 4940ft 91kts
07-Jul-20 17:17 48.408830 -117.846215 194 4970ft 91kts
07-Jul-20 17:18 48.384016 -117.854736 194 5041ft 91kts
07-Jul-20 17:19 48.358347 -117.853747 178 5106ft 93kts
07-Jul-20 17:21 48.332754 -117.847005 167 5179ft 94kts
07-Jul-20 17:22 48.308021 -117.831722 161 5235ft 96kts
07-Jul-20 17:23 48.284006 -117.814954 161 5239ft 94kts
07-Jul-20 17:24 48.260106 -117.798187 161 5232ft 95kts
07-Jul-20 17:25 48.236192 -117.781352 160 5241ft 93kts
07-Jul-20 17:26 48.212501 -117.764587 160 5249ft 94kts
07-Jul-20 17:27 48.188723 -117.747708 160 5259ft 94kts
07-Jul-20 17:28 48.164925 -117.730744 160 5268ft 94kts
07-Jul-20 17:29 48.141331 -117.713837 160 5296ft 93kts
07-Jul-20 17:30 48.117825 -117.696918 160 5315ft 94kts
07-Jul-20 17:31 48.094491 -117.678711 157 5341ft 94kts
07-Jul-20 17:32 48.071424 -117.659799 160 5349ft 94kts
07-Jul-20 17:33 48.047306 -117.645478 164 5357ft 93kts
07-Jul-20 17:34 48.023043 -117.631111 164 5363ft 93kts
07-Jul-20 17:35 47.998934 -117.616776 164 5368ft 93kts
07-Jul-20 17:36 47.974625 -117.603093 164 5373ft 93kts
07-Jul-20 17:36 47.954380 -117.591642 164 5376ft 93kts
07-Jul-20 17:38 47.926011 -117.575521 164 5381ft 93kts
07-Jul-20 17:39 47.901765 -117.561672 164 5349ft 93kts
07-Jul-20 17:39 47.881503 -117.550072 164 5320ft 93kts
07-Jul-20 17:40 47.857332 -117.536178 164 5151ft 93kts
07-Jul-20 17:41 47.832870 -117.524179 167 4962ft 92kts
07-Jul-20 17:42 47.808464 -117.512350 167 4787ft 92kts
07-Jul-20 17:43 47.784072 -117.500304 167 4618ft 92kts
07-Jul-20 17:44 47.759366 -117.489420 173 4430ft 93kts
07-Jul-20 17:45 47.734078 -117.481837 176 4166ft 98kts
07-Jul-20 17:46 47.709665 -117.480848 188 3940ft 92kts
07-Jul-20 17:47 47.684371 -117.486153 197 3590ft 97kts
07-Jul-20 17:48 47.659005 -117.496136 199 3161ft 91kts
07-Jul-20 17:49 47.636325 -117.510773 222 2495ft 77kts
07-Jul-20 17:50 47.626940 -117.523809 163 2340ft 11kts
07-Jul-20 17:51 47.624986 -117.523925 203 2347ft 16kts
07-Jul-20 17:52 47.623376 -117.524420 242 2353ft 0kts
07-Jul-20 17:53 47.623376 -117.524420 242 2353ft 0kts
07-Jul-20 17:54 47.623376 -117.524420 242 2353ft 0kts
07-Jul-20 17:55 47.623376 -117.524420 242 2353ft 0kts
07-Jul-20 17:56 47.623376 -117.524420 242 2353ft 0kts
07-Jul-20 17:57 47.623376 -117.524420 242 2353ft 0kts
07-Jul-20 17:58 47.623376 -117.524420 242 2353ft 0kts
07-Jul-20 17:59 47.623376 -117.524420 242 2353ft 0kts
07-Jul-20 18:00 47.623376 -117.524420 242 2353ft 0kts
07-Jul-20 18:01 47.623376 -117.524420 242 2353ft 0kts
07-Jul-20 18:02 47.623376 -117.524420 242 2353ft 0kts
07-Jul-20 18:03 47.623376 -117.524420 242 2353ft 0kts
07-Jul-20 18:04 47.623376 -117.524420 242 2353ft 0kts

Navigation Log

Ident Type
Flight plan parsing failed, navigation log unavailable